ADDS METAR Data INFO
IDs: Format: Raw Decoded Include TAF

Data at: 0222 UTC 14 Dec 2017

KALX 140215Z AUTO 21003KT 10SM CLR 03/00 A2990 RMK AO2 T00251004
KALX 140155Z AUTO 00000KT 10SM CLR 03/01 A2990 RMK AO2 T00280007
KALX 140135Z AUTO 00000KT 10SM CLR 02/M01 A2990 RMK AO2 T00191011
KALX 140115Z AUTO 00000KT 10SM CLR 03/M01 A2991 RMK AO2 T00251009
KALX 140055Z AUTO 22003KT 10SM CLR 04/M01 A2991 RMK AO2 T00421012
KALX 140035Z AUTO 00000KT 10SM CLR 05/M01 A2991 RMK AO2 T00451015
KALX 140015Z AUTO 19003KT 10SM CLR 04/M01 A2991 RMK AO2 T00401013
KALX 132355Z AUTO 18003KT 10SM CLR 04/M01 A2991 RMK AO2 60003 T00361007 10107 20035
KALX 132335Z AUTO 00000KT 10SM CLR 06/M01 A2993 RMK AO2 T00561009
KALX 132315Z AUTO 00000KT 10SM CLR 07/M01 A2994 RMK AO2 T00681014
KALX 132255Z AUTO 00000KT 10SM CLR 08/M02 A2994 RMK AO2 T00781021
KALX 132235Z AUTO 20004KT 10SM CLR 08/M02 A2994 RMK AO2 T00821021
KALX 132215Z AUTO 20006KT 10SM CLR 09/M02 A2994 RMK AO2 T00931022
KALX 132155Z AUTO 22008KT 10SM CLR 10/M02 A2996 RMK AO2 T00971023
KALX 132135Z AUTO 20008KT 10SM CLR 10/M03 A2995 RMK AO2 T01001027
KALX 132115Z AUTO 21008G14KT 10SM CLR 10/M03 A2996 RMK AO2 T01021029
KALX 132055Z AUTO 22010G15KT 10SM CLR 11/M03 A2997 RMK AO2 P0003 60003 T01051031
KALX 132015Z AUTO 21008G16KT 10SM CLR 10/M04 A2998 RMK AO2 T01041037
KALX 131955Z AUTO 24009G16KT 200V260 10SM CLR 10/M04 A2998 RMK AO2 T01021044
KALX 131935Z AUTO 19010G14KT 10SM CLR 10/M09 A2999 RMK AO2 T00981088
KALX 131915Z AUTO 22007G14KT 10SM CLR 10/M08 A2999 RMK AO2 T00991085
KALX 131855Z AUTO 23005KT 10SM CLR 10/M09 A3000 RMK AO2 T00981087
KALX 131835Z AUTO 21007KT 180V240 10SM CLR 09/M08 A3001 RMK AO2 T00941083
KALX 131815Z AUTO 15004KT 10SM CLR 09/M08 A3003 RMK AO2 T00891079
KALX 131755Z AUTO 21007KT 10SM CLR 09/M09 A3004 RMK AO2 T00851087 10086 21038
KALX 131735Z AUTO 24006KT 10SM CLR 08/M09 A3006 RMK AO2 T00791092
KALX 131715Z AUTO 21007KT 10SM CLR 07/M10 A3008 RMK AO2 T00741100
KALX 131655Z AUTO 18005KT 10SM CLR 07/M09 A3008 RMK AO2 T00711090
KALX 131635Z AUTO 00000KT 10SM CLR 06/M10 A3010 RMK AO2 T00611100
KALX 131615Z AUTO 00000KT 10SM CLR 05/M10 A3011 RMK AO2 T00521097
KALX 131555Z AUTO 20003KT 10SM CLR 04/M09 A3011 RMK AO2 T00441094
KALX 131535Z AUTO 19003KT 10SM CLR 04/M09 A3011 RMK AO2 T00371093
KALX 131515Z AUTO 00000KT 10SM CLR 03/M08 A3012 RMK AO2 T00341083
KALX 131455Z AUTO 00000KT 10SM CLR 02/M09 A3011 RMK AO2 T00201087
KALX 131435Z AUTO 00000KT 10SM CLR 01/M07 A3011 RMK AO2 T00141066
KALX 131415Z AUTO 00000KT 10SM CLR 00/M05 A3010 RMK AO2 T00011051
KALX 131355Z AUTO 00000KT 10SM CLR M01/M04 A3011 RMK AO2 T10121040
KALX 131335Z AUTO 00000KT 10SM CLR M03/M04 A3011 RMK AO2 T10261041
KALX 131315Z AUTO 00000KT 10SM CLR M03/M05 A3010 RMK AO2 T10331046
KALX 131255Z AUTO 00000KT 10SM CLR M03/M05 A3009 RMK AO2 T10331050
KALX 131235Z AUTO 00000KT 10SM CLR M03/M05 A3010 RMK AO2 T10311047
KALX 131215Z AUTO 00000KT 10SM CLR M03/M05 A3010 RMK AO2 T10341047
KALX 131155Z AUTO 00000KT 10SM CLR M03/M05 A3010 RMK AO2 T10331047 10030 21038
KALX 131135Z AUTO 00000KT 10SM CLR M04/M05 A3010 RMK AO2 T10381050
KALX 131115Z AUTO 00000KT 10SM CLR M02/M04 A3009 RMK AO2 T10251045
KALX 131055Z AUTO 00000KT 10SM CLR M02/M05 A3009 RMK AO2 T10201048
KALX 131035Z AUTO 00000KT 10SM CLR M02/M05 A3009 RMK AO2 T10211049
KALX 131015Z AUTO 00000KT 10SM CLR M03/M05 A3009 RMK AO2 T10311047
KALX 130955Z AUTO 00000KT 10SM CLR M02/M04 A3008 RMK AO2 T10211045
KALX 130935Z AUTO 31003KT 10SM CLR M01/M05 A3008 RMK AO2 T10121047
KALX 130915Z AUTO 31004KT 10SM CLR 00/M05 A3008 RMK AO2 T10051050
KALX 130855Z AUTO 28003KT 10SM CLR 00/M05 A3009 RMK AO2 T00001052
KALX 130835Z AUTO 29003KT 10SM CLR 01/M06 A3010 RMK AO2 T00061056
KALX 130815Z AUTO 31004KT 10SM CLR 01/M05 A3009 RMK AO2 T00101055
KALX 130755Z AUTO 34003KT 10SM CLR 01/M04 A3009 RMK AO2 T00071045
KALX 130735Z AUTO 33004KT 10SM CLR 01/M04 A3009 RMK AO2 T00121041
KALX 130715Z AUTO 34005KT 10SM CLR 02/M04 A3009 RMK AO2 T00151040
KALX 130655Z AUTO 32005KT 10SM CLR 02/M04 A3009 RMK AO2 T00161040
KALX 130635Z AUTO 32005KT 10SM CLR 02/M04 A3008 RMK AO2 T00201040
KALX 130615Z AUTO 31005KT 10SM CLR 02/M04 A3008 RMK AO2 T00181037
KALX 130555Z AUTO 31004KT 10SM CLR 03/M04 A3008 RMK AO2 T00301041 10056 20029
KALX 130535Z AUTO 30003KT 10SM CLR 03/M04 A3008 RMK AO2 T00301040
KALX 130515Z AUTO 32005KT 10SM CLR 04/M04 A3007 RMK AO2 T00351040
KALX 130455Z AUTO 32006KT 10SM CLR 04/M04 A3007 RMK AO2 T00371037 401150000
KALX 130435Z AUTO 29004KT 10SM CLR 04/M04 A3007 RMK AO2 T00421037
KALX 130415Z AUTO 31007KT 10SM CLR 05/M03 A3007 RMK AO2 T00451032
KALX 130355Z AUTO 30005KT 10SM CLR 04/M03 A3007 RMK AO2 T00411026
KALX 130335Z AUTO 30004KT 10SM CLR 04/M02 A3007 RMK AO2 T00391020
KALX 130310Z AUTO 29003KT 10SM CLR 04/M02 A3006 RMK AO2 T00381016
KALX 130255Z AUTO 28004KT 10SM CLR 04/M01 A3006 RMK AO2 T00381015
KALX 130235Z AUTO 29004KT 10SM CLR 05/M01 A3005 RMK AO2 T00461015
KALX 130215Z AUTO 29004KT 10SM CLR 05/M01 A3004 RMK AO2 T00481014
KALX 130155Z AUTO 28004KT 10SM CLR 05/M01 A3004 RMK AO2 T00491012
KALX 130135Z AUTO 29004KT 10SM CLR 05/M01 A3004 RMK AO2 T00511010
KALX 130115Z AUTO 27005KT 10SM CLR 05/M01 A3004 RMK AO2 T00531009
KALX 130055Z AUTO 27005KT 10SM CLR 05/M01 A3003 RMK AO2 T00511007
KALX 130035Z AUTO 26004KT 10SM CLR 05/00 A3003 RMK AO2 T00531005
KALX 130015Z AUTO 25003KT 10SM CLR 04/00 A3003 RMK AO2 T00400001
KALX 122355Z AUTO 24003KT 10SM CLR 04/00 A3002 RMK AO2 T00420000 10115 20042
KALX 122335Z AUTO 26003KT 10SM CLR 06/00 A3002 RMK AO2 LTG DSNT E T00641002
KALX 122315Z AUTO 29004KT 10SM CLR 08/M01 A3002 RMK AO2 T00821008
KALX 122255Z AUTO 30004KT 10SM CLR 09/M01 A3001 RMK AO2 T00871007
KALX 122235Z AUTO 30006KT 10SM CLR 09/M01 A3001 RMK AO2 T00931007
KALX 122215Z AUTO 29006KT 10SM CLR 10/00 A3001 RMK AO2 T01001004
KALX 122155Z AUTO 29006G16KT 10SM CLR 11/00 A3000 RMK AO2 T01051001
KALX 122135Z AUTO 30011G20KT 10SM CLR 11/00 A2999 RMK AO2 T01090001
KALX 122115Z AUTO 28009G15KT 10SM CLR 11/00 A2998 RMK AO2 LTG DSNT SE T01100002
KALX 122055Z AUTO 30009KT 10SM CLR 11/00 A2998 RMK AO2 LTG DSNT SE T01100000
KALX 122035Z AUTO 32007G19KT 10SM CLR 11/00 A2999 RMK AO2 LTG DSNT E AND SE T01081001
KALX 122015Z AUTO 33011G16KT 10SM CLR 11/00 A2999 RMK AO2 T01120001
KALX 121955Z AUTO 31007G16KT 10SM CLR 11/00 A3000 RMK AO2 T01060001
KALX 121935Z AUTO 32010G16KT 10SM CLR 11/00 A3000 RMK AO2 T01100002
KALX 121915Z AUTO 33014G19KT 10SM SCT045 11/01 A3000 RMK AO2 T01060005
KALX 121855Z AUTO 33012G18KT 10SM SCT046 11/01 A2999 RMK AO2 T01100006
KALX 121835Z AUTO 32015G23KT 10SM SCT046 11/00 A3001 RMK AO2 T01110003
KALX 121815Z AUTO 30018G24KT 10SM SCT046 12/00 A3001 RMK AO2 T01150004
KALX 121755Z AUTO 34017G21KT 310V010 10SM SCT044 11/00 A3001 RMK AO2 T01120003 10115 20000
KALX 121735Z AUTO 34011G20KT 10SM BKN044 11/01 A3001 RMK AO2 T01110008
KALX 121715Z AUTO 33010G17KT 10SM BKN044 11/01 A3001 RMK AO2 T01140011
KALX 121655Z AUTO 32011G18KT 10SM SCT044 11/01 A3002 RMK AO2 T01080005
KALX 121635Z AUTO 32013G20KT 10SM SCT044 11/00 A3002 RMK AO2 T01060003
KALX 121615Z AUTO 32014KT 10SM CLR 10/00 A3003 RMK AO2 T01040003
KALX 121555Z AUTO 32011G16KT 300V360 10SM CLR 10/01 A3002 RMK AO2 T01010008
KALX 121535Z AUTO 33014G19KT 10SM CLR 10/01 A3003 RMK AO2 T00950006
KALX 121515Z AUTO 32012G20KT 10SM CLR 09/00 A3002 RMK AO2 T00920004
KALX 121455Z AUTO 32009G16KT 10SM CLR 09/01 A3001 RMK AO2 T00890011
KALX 121435Z AUTO 31007KT 10SM CLR 08/01 A3000 RMK AO2 T00800009